createdAt,value
2019-05-25T00:00:55.441Z,1009.72
2019-05-25T00:01:55.436Z,1009.74
2019-05-25T00:02:55.456Z,1009.71
2019-05-25T00:03:55.429Z,1009.69
2019-05-25T00:04:55.425Z,1009.72
2019-05-25T00:05:55.423Z,1009.75
2019-05-25T00:06:55.417Z,1009.74
2019-05-25T00:07:55.416Z,1009.74
2019-05-25T00:08:55.409Z,1009.75
2019-05-25T00:09:55.405Z,1009.73
2019-05-25T00:10:55.394Z,1009.74
2019-05-25T00:11:55.405Z,1009.72
2019-05-25T00:12:55.385Z,1009.69
2019-05-25T00:13:55.378Z,1009.72
2019-05-25T00:14:55.380Z,1009.73
2019-05-25T00:15:55.374Z,1009.76
2019-05-25T00:16:55.370Z,1009.75
2019-05-25T00:17:55.365Z,1009.78
2019-05-25T00:18:55.359Z,1009.78
2019-05-25T00:19:55.352Z,1009.79
2019-05-25T00:20:55.348Z,1009.79
2019-05-25T00:21:55.341Z,1009.76
2019-05-25T00:22:55.341Z,1009.78
2019-05-25T00:24:10.863Z,1009.79
2019-05-25T00:24:55.327Z,1009.79
2019-05-25T00:25:55.327Z,1009.82
2019-05-25T00:26:55.319Z,1009.85
2019-05-25T00:27:55.317Z,1009.85
2019-05-25T00:28:55.311Z,1009.86
2019-05-25T00:29:55.307Z,1009.83
2019-05-25T00:30:55.302Z,1009.90
2019-05-25T00:31:55.294Z,1009.82
2019-05-25T00:32:55.285Z,1009.81
2019-05-25T00:33:55.285Z,1009.78
2019-05-25T00:34:55.282Z,1009.81
2019-05-25T00:35:55.276Z,1009.72
2019-05-25T00:36:55.278Z,1009.76
2019-05-25T00:37:55.278Z,1009.77
2019-05-25T00:38:55.306Z,1009.77
2019-05-25T00:39:55.255Z,1009.78
2019-05-25T00:40:55.249Z,1009.79
2019-05-25T00:41:55.246Z,1009.80
2019-05-25T00:42:55.237Z,1009.81
2019-05-25T00:43:55.233Z,1009.82
2019-05-25T00:44:55.225Z,1009.82
2019-05-25T00:45:55.217Z,1009.82
2019-05-25T00:46:55.227Z,1009.77
2019-05-25T00:47:55.215Z,1009.79
2019-05-25T00:48:55.208Z,1009.85
2019-05-25T00:49:55.206Z,1009.84
2019-05-25T00:50:55.195Z,1009.83
2019-05-25T00:51:55.192Z,1009.81
2019-05-25T00:52:55.185Z,1009.82
2019-05-25T00:53:55.176Z,1009.83
2019-05-25T00:54:55.207Z,1009.81
2019-05-25T00:55:55.176Z,1009.84
2019-05-25T00:56:55.166Z,1009.81
2019-05-25T00:57:55.160Z,1009.80
2019-05-25T00:58:55.160Z,1009.82
2019-05-25T00:59:55.155Z,1009.81
2019-05-25T01:00:55.165Z,1009.81
2019-05-25T01:01:55.143Z,1009.81
2019-05-25T01:02:55.130Z,1009.86
2019-05-25T01:03:55.128Z,1009.88
2019-05-25T01:04:55.121Z,1009.83
2019-05-25T01:05:55.128Z,1009.87
2019-05-25T01:06:55.122Z,1009.86
2019-05-25T01:07:55.112Z,1009.85
2019-05-25T01:08:55.104Z,1009.87
2019-05-25T01:09:55.101Z,1009.83
2019-05-25T01:10:55.092Z,1009.88
2019-05-25T01:11:55.088Z,1009.87
2019-05-25T01:12:55.084Z,1009.84
2019-05-25T01:13:55.081Z,1009.82
2019-05-25T01:14:55.071Z,1009.86
2019-05-25T01:15:55.056Z,1009.87
2019-05-25T01:16:55.078Z,1009.90
2019-05-25T01:17:55.057Z,1009.88
2019-05-25T01:18:55.052Z,1009.89
2019-05-25T01:19:55.045Z,1009.89
2019-05-25T01:20:55.040Z,1009.88
2019-05-25T01:21:55.046Z,1009.91
2019-05-25T01:22:55.027Z,1009.94
2019-05-25T01:23:55.021Z,1009.97
2019-05-25T01:24:55.017Z,1009.96
2019-05-25T01:25:55.008Z,1009.98
2019-05-25T01:26:55.033Z,1009.96
2019-05-25T01:27:55.003Z,1009.95
2019-05-25T01:28:54.996Z,1009.96
2019-05-25T01:29:54.982Z,1009.93
2019-05-25T01:30:54.988Z,1009.91
2019-05-25T01:31:54.988Z,1009.95
2019-05-25T01:32:54.971Z,1009.94
2019-05-25T01:33:54.968Z,1009.93
2019-05-25T01:34:54.989Z,1009.93
2019-05-25T01:35:54.954Z,1009.90
2019-05-25T01:36:54.957Z,1009.94
2019-05-25T01:37:54.939Z,1009.95
2019-05-25T01:38:54.941Z,1009.91
2019-05-25T01:39:54.935Z,1009.93
2019-05-25T01:40:54.949Z,1009.92
2019-05-25T01:41:54.929Z,1009.92
2019-05-25T01:42:54.926Z,1009.92
2019-05-25T01:43:54.910Z,1009.94
2019-05-25T01:44:54.907Z,1009.91
2019-05-25T01:45:54.917Z,1009.90
2019-05-25T01:46:54.895Z,1009.92
2019-05-25T01:47:54.888Z,1009.92
2019-05-25T01:48:54.881Z,1009.91
2019-05-25T01:49:54.880Z,1009.92
2019-05-25T01:50:54.876Z,1009.91
2019-05-25T01:51:54.866Z,1009.88
2019-05-25T01:52:54.870Z,1009.90
2019-05-25T01:53:54.860Z,1009.88
2019-05-25T01:54:59.868Z,1009.85
2019-05-25T01:55:54.842Z,1009.84
2019-05-25T01:56:54.843Z,1009.87
2019-05-25T01:57:54.854Z,1009.84
2019-05-25T01:58:54.831Z,1009.85
2019-05-25T01:59:54.826Z,1009.81
2019-05-25T02:00:54.837Z,1009.85
2019-05-25T02:01:54.810Z,1009.84
2019-05-25T02:02:54.808Z,1009.85
2019-05-25T02:03:54.815Z,1009.82
2019-05-25T02:04:54.796Z,1009.87
2019-05-25T02:05:54.792Z,1009.87
2019-05-25T02:06:54.788Z,1009.82
2019-05-25T02:07:54.777Z,1009.86
2019-05-25T02:08:54.794Z,1009.85
2019-05-25T02:09:54.763Z,1009.82
2019-05-25T02:10:54.763Z,1009.87
2019-05-25T02:11:54.758Z,1009.84
2019-05-25T02:12:54.751Z,1009.88
2019-05-25T02:13:54.760Z,1009.86
2019-05-25T02:14:54.735Z,1009.86
2019-05-25T02:15:54.798Z,1009.85
2019-05-25T02:16:54.727Z,1009.85
2019-05-25T02:17:54.720Z,1009.86
2019-05-25T02:18:54.712Z,1009.86
2019-05-25T02:19:54.704Z,1009.82
2019-05-25T02:20:54.696Z,1009.83
2019-05-25T02:21:54.695Z,1009.85
2019-05-25T02:22:54.691Z,1009.87
2019-05-25T02:23:54.689Z,1009.88
2019-05-25T02:24:54.673Z,1009.88
2019-05-25T02:25:54.683Z,1009.85
2019-05-25T02:26:54.665Z,1009.88
2019-05-25T02:27:54.659Z,1009.89
2019-05-25T02:28:54.651Z,1009.87
2019-05-25T02:29:54.645Z,1009.90
2019-05-25T02:30:54.645Z,1009.88
2019-05-25T02:31:54.636Z,1009.87
2019-05-25T02:32:54.624Z,1009.87
2019-05-25T02:33:54.625Z,1009.90
2019-05-25T02:34:54.624Z,1009.87
2019-05-25T02:35:54.618Z,1009.89
2019-05-25T02:36:54.616Z,1009.90
2019-05-25T02:37:54.604Z,1009.86
2019-05-25T02:38:54.591Z,1009.91
2019-05-25T02:39:54.587Z,1009.90
2019-05-25T02:40:54.573Z,1009.93
2019-05-25T02:41:54.570Z,1009.95
2019-05-25T02:42:54.589Z,1009.95
2019-05-25T02:43:54.562Z,1009.94
2019-05-25T02:44:54.555Z,1009.95
2019-05-25T02:45:54.555Z,1009.96
2019-05-25T02:46:54.544Z,1009.94
2019-05-25T02:47:54.534Z,1009.93
2019-05-25T02:48:54.532Z,1009.97
2019-05-25T02:49:54.525Z,1009.98
2019-05-25T02:50:54.523Z,1009.98
2019-05-25T02:51:54.511Z,1010.02
2019-05-25T02:52:54.499Z,1009.96
2019-05-25T02:53:54.498Z,1009.99
2019-05-25T02:54:54.492Z,1010.00
2019-05-25T02:55:54.487Z,1010.01
2019-05-25T02:56:54.481Z,1009.99
2019-05-25T02:57:54.491Z,1009.99
2019-05-25T02:58:54.466Z,1010.00
2019-05-25T02:59:54.460Z,1009.99
2019-05-25T03:00:54.451Z,1010.02
2019-05-25T03:01:54.446Z,1010.02
2019-05-25T03:02:54.447Z,1009.98
2019-05-25T03:03:54.436Z,1010.03
2019-05-25T03:04:54.427Z,1010.04
2019-05-25T03:05:54.420Z,1010.05
2019-05-25T03:06:54.418Z,1010.06
2019-05-25T03:07:54.411Z,1010.09
2019-05-25T03:08:54.405Z,1010.08
2019-05-25T03:09:54.398Z,1010.10
2019-05-25T03:10:54.392Z,1010.13
2019-05-25T03:11:54.383Z,1010.11
2019-05-25T03:12:54.376Z,1010.15
2019-05-25T03:13:54.366Z,1010.17
2019-05-25T03:14:54.368Z,1010.18
2019-05-25T03:15:54.358Z,1010.24
2019-05-25T03:16:54.355Z,1010.24
2019-05-25T03:17:54.348Z,1010.25
2019-05-25T03:18:54.338Z,1010.27
2019-05-25T03:19:54.351Z,1010.28
2019-05-25T03:20:54.326Z,1010.30
2019-05-25T03:21:54.323Z,1010.24
2019-05-25T03:22:54.311Z,1010.28
2019-05-25T03:23:54.306Z,1010.30
2019-05-25T03:24:54.302Z,1010.30
2019-05-25T03:25:54.292Z,1010.32
2019-05-25T03:26:54.289Z,1010.31
2019-05-25T03:27:54.283Z,1010.33
2019-05-25T03:28:54.285Z,1010.32
2019-05-25T03:29:54.270Z,1010.35
2019-05-25T03:30:54.261Z,1010.32
2019-05-25T03:31:54.254Z,1010.37
2019-05-25T03:32:54.249Z,1010.36
2019-05-25T03:33:54.240Z,1010.37
2019-05-25T03:34:54.246Z,1010.38
2019-05-25T03:35:54.223Z,1010.39
2019-05-25T03:36:54.225Z,1010.40
2019-05-25T03:37:54.216Z,1010.43
2019-05-25T03:38:54.211Z,1010.41
2019-05-25T03:39:54.205Z,1010.41
2019-05-25T03:40:54.202Z,1010.43
2019-05-25T03:41:54.194Z,1010.39
2019-05-25T03:42:54.179Z,1010.44
2019-05-25T03:43:54.175Z,1010.42
2019-05-25T03:44:54.171Z,1010.44
2019-05-25T03:45:54.164Z,1010.41
2019-05-25T03:46:54.163Z,1010.38
2019-05-25T03:47:54.154Z,1010.39
2019-05-25T03:48:54.148Z,1010.38
2019-05-25T03:49:54.140Z,1010.38
2019-05-25T03:50:54.132Z,1010.40
2019-05-25T03:51:54.131Z,1010.43
2019-05-25T03:52:54.120Z,1010.37
2019-05-25T03:53:54.117Z,1010.40
2019-05-25T03:54:54.114Z,1010.45
2019-05-25T03:56:05.155Z,1010.46
2019-05-25T03:56:54.092Z,1010.49
2019-05-25T03:57:54.078Z,1010.50
2019-05-25T03:58:54.088Z,1010.49
2019-05-25T03:59:54.086Z,1010.49
2019-05-25T04:00:54.075Z,1010.48
2019-05-25T04:01:54.064Z,1010.51
2019-05-25T04:02:54.060Z,1010.49
2019-05-25T04:03:54.048Z,1010.52
2019-05-25T04:04:54.044Z,1010.55
2019-05-25T04:05:54.050Z,1010.52
2019-05-25T04:06:54.032Z,1010.52
2019-05-25T04:07:54.026Z,1010.56
2019-05-25T04:08:54.013Z,1010.53
2019-05-25T04:09:54.016Z,1010.52
2019-05-25T04:10:54.020Z,1010.54
2019-05-25T04:11:54.003Z,1010.54
2019-05-25T04:12:54.020Z,1010.54
2019-05-25T04:13:53.986Z,1010.56
2019-05-25T04:14:53.986Z,1010.56
2019-05-25T04:15:53.975Z,1010.61
2019-05-25T04:16:53.989Z,1010.58
2019-05-25T04:17:53.958Z,1010.61
2019-05-25T04:18:53.955Z,1010.62
2019-05-25T04:19:53.954Z,1010.61
2019-05-25T04:20:53.950Z,1010.64
2019-05-25T04:21:53.939Z,1010.66
2019-05-25T04:22:53.927Z,1010.67
2019-05-25T04:23:53.922Z,1010.66
2019-05-25T04:24:53.917Z,1010.67
2019-05-25T04:25:53.920Z,1010.70
2019-05-25T04:26:53.903Z,1010.73
2019-05-25T04:27:53.895Z,1010.72
2019-05-25T04:28:53.887Z,1010.76
2019-05-25T04:29:53.883Z,1010.76
2019-05-25T04:30:53.889Z,1010.73
2019-05-25T04:31:53.873Z,1010.76
2019-05-25T04:32:53.867Z,1010.78
2019-05-25T04:33:53.859Z,1010.77
2019-05-25T04:34:53.869Z,1010.80
2019-05-25T04:35:53.848Z,1010.84
2019-05-25T04:36:53.842Z,1010.83
2019-05-25T04:37:53.837Z,1010.86
2019-05-25T04:38:53.833Z,1010.88
2019-05-25T04:39:53.886Z,1010.87
2019-05-25T04:40:53.816Z,1010.90
2019-05-25T04:41:53.817Z,1010.89
2019-05-25T04:42:53.835Z,1010.91
2019-05-25T04:43:53.817Z,1010.89
2019-05-25T04:44:53.790Z,1010.91
2019-05-25T04:45:53.801Z,1010.97
2019-05-25T04:46:53.777Z,1010.94
2019-05-25T04:47:53.764Z,1010.98
2019-05-25T04:48:53.766Z,1010.96
2019-05-25T04:49:53.761Z,1011.00
2019-05-25T04:50:53.755Z,1010.96
2019-05-25T04:51:53.749Z,1011.00
2019-05-25T04:52:53.742Z,1011.04
2019-05-25T04:53:53.748Z,1011.00
2019-05-25T04:54:53.734Z,1011.04
2019-05-25T04:55:53.721Z,1011.05
2019-05-25T04:56:53.724Z,1011.01
2019-05-25T04:57:53.737Z,1011.04
2019-05-25T04:58:53.705Z,1011.04
2019-05-25T04:59:53.729Z,1011.01
2019-05-25T05:00:53.703Z,1011.08
2019-05-25T05:01:53.686Z,1011.10
2019-05-25T05:02:53.689Z,1011.14
2019-05-25T05:03:53.680Z,1011.13
2019-05-25T05:04:53.688Z,1011.11
2019-05-25T05:05:53.667Z,1011.10
2019-05-25T05:06:53.673Z,1011.06
2019-05-25T05:07:53.659Z,1011.11
2019-05-25T05:08:53.648Z,1011.11
2019-05-25T05:10:02.286Z,1011.09
2019-05-25T05:10:53.640Z,1011.09
2019-05-25T05:11:53.627Z,1011.10
2019-05-25T05:12:53.628Z,1011.10
2019-05-25T05:13:53.618Z,1011.11
2019-05-25T05:14:56.445Z,1011.10
2019-05-25T05:15:53.612Z,1011.11
2019-05-25T05:16:53.609Z,1011.14
2019-05-25T05:17:53.600Z,1011.15
2019-05-25T05:18:53.596Z,1011.16
2019-05-25T05:19:53.588Z,1011.17
2019-05-25T05:20:53.585Z,1011.20
2019-05-25T05:21:53.579Z,1011.25
2019-05-25T05:22:53.577Z,1011.26
2019-05-25T05:23:53.593Z,1011.25
2019-05-25T05:24:53.570Z,1011.30
2019-05-25T05:25:53.565Z,1011.29
2019-05-25T05:26:56.193Z,1011.26
2019-05-25T05:27:53.555Z,1011.26
2019-05-25T05:28:53.552Z,1011.23
2019-05-25T05:29:54.368Z,1011.25
2019-05-25T05:30:53.541Z,1011.23
2019-05-25T05:31:53.558Z,1011.24
2019-05-25T05:32:53.543Z,1011.24
2019-05-25T05:33:53.538Z,1011.26
2019-05-25T05:34:53.541Z,1011.22
2019-05-25T05:35:53.546Z,1011.23
2019-05-25T05:36:53.541Z,1011.15
2019-05-25T05:37:53.537Z,1011.19
2019-05-25T05:38:53.540Z,1011.21
2019-05-25T05:39:53.532Z,1011.21
2019-05-25T05:40:53.532Z,1011.22
2019-05-25T05:41:53.535Z,1011.20
2019-05-25T05:42:53.545Z,1011.26
2019-05-25T05:43:54.379Z,1011.25
2019-05-25T05:44:53.546Z,1011.28
2019-05-25T05:45:53.551Z,1011.30
2019-05-25T05:46:53.531Z,1011.27
2019-05-25T05:47:53.539Z,1011.28
2019-05-25T05:48:53.539Z,1011.29
2019-05-25T05:49:53.568Z,1011.28
2019-05-25T05:50:53.540Z,1011.30
2019-05-25T05:51:53.538Z,1011.31
2019-05-25T05:52:53.536Z,1011.36
2019-05-25T05:53:53.537Z,1011.33
2019-05-25T05:54:53.547Z,1011.32
2019-05-25T05:55:53.550Z,1011.40
2019-05-25T05:56:53.549Z,1011.33
2019-05-25T05:57:53.550Z,1011.32
2019-05-25T05:58:53.551Z,1011.35
2019-05-25T05:59:53.551Z,1011.35
2019-05-25T06:00:53.561Z,1011.34
2019-05-25T06:01:53.563Z,1011.33
2019-05-25T06:02:53.570Z,1011.37
2019-05-25T06:03:53.559Z,1011.42
2019-05-25T06:04:53.566Z,1011.42
2019-05-25T06:05:53.569Z,1011.39
2019-05-25T06:06:53.580Z,1011.43
2019-05-25T06:07:53.579Z,1011.45
2019-05-25T06:08:53.582Z,1011.46
2019-05-25T06:09:53.585Z,1011.44
2019-05-25T06:10:53.591Z,1011.44
2019-05-25T06:11:53.590Z,1011.49
2019-05-25T06:12:53.594Z,1011.52
2019-05-25T06:13:53.604Z,1011.56
2019-05-25T06:14:53.605Z,1011.58
2019-05-25T06:15:55.937Z,1011.54
2019-05-25T06:16:53.611Z,1011.54
2019-05-25T06:17:53.616Z,1011.52
2019-05-25T06:18:53.624Z,1011.54
2019-05-25T06:19:53.630Z,1011.53
2019-05-25T06:20:53.640Z,1011.53
2019-05-25T06:21:53.633Z,1011.59
2019-05-25T06:22:53.641Z,1011.59
2019-05-25T06:23:53.644Z,1011.59
2019-05-25T06:24:53.650Z,1011.64
2019-05-25T06:25:53.658Z,1011.60
2019-05-25T06:26:53.666Z,1011.54
2019-05-25T06:27:53.672Z,1011.59
2019-05-25T06:28:53.680Z,1011.58
2019-05-25T06:29:53.682Z,1011.57
2019-05-25T06:30:53.680Z,1011.61
2019-05-25T06:31:53.687Z,1011.57
2019-05-25T06:32:53.705Z,1011.61
2019-05-25T06:33:53.705Z,1011.65
2019-05-25T06:34:53.705Z,1011.64
2019-05-25T06:35:53.712Z,1011.72
2019-05-25T06:36:53.718Z,1011.74
2019-05-25T06:37:53.726Z,1011.74
2019-05-25T06:38:53.733Z,1011.78
2019-05-25T06:39:53.739Z,1011.80
2019-05-25T06:40:53.748Z,1011.84
2019-05-25T06:41:53.751Z,1011.83
2019-05-25T06:42:53.756Z,1011.85
2019-05-25T06:43:53.755Z,1011.85
2019-05-25T06:44:53.778Z,1011.83
2019-05-25T06:45:53.774Z,1011.87
2019-05-25T06:46:53.791Z,1011.85
2019-05-25T06:47:53.790Z,1011.65
2019-05-25T06:48:53.797Z,1011.60
2019-05-25T06:49:53.803Z,1011.58
2019-05-25T06:50:53.815Z,1011.59
2019-05-25T06:51:53.821Z,1011.63
2019-05-25T06:52:57.620Z,1011.58
2019-05-25T06:53:53.836Z,1011.58
2019-05-25T06:54:53.846Z,1011.65
2019-05-25T06:55:53.846Z,1011.60
2019-05-25T06:56:53.867Z,1011.55
2019-05-25T06:57:53.857Z,1011.59
2019-05-25T06:58:53.868Z,1011.55
2019-05-25T06:59:53.873Z,1011.59
2019-05-25T07:00:53.880Z,1011.60
2019-05-25T07:01:53.890Z,1011.60
2019-05-25T07:02:53.890Z,1011.65
2019-05-25T07:03:53.893Z,1011.55
2019-05-25T07:04:53.902Z,1011.66
2019-05-25T07:05:53.909Z,1011.65
2019-05-25T07:06:53.910Z,1011.65
2019-05-25T07:07:54.676Z,1011.66
2019-05-25T07:08:53.920Z,1011.65
2019-05-25T07:09:53.927Z,1011.68
2019-05-25T07:10:53.940Z,1011.64
2019-05-25T07:11:53.942Z,1011.63
2019-05-25T07:12:54.015Z,1011.70
2019-05-25T07:13:53.955Z,1011.65
2019-05-25T07:14:53.960Z,1011.66
2019-05-25T07:15:53.965Z,1011.66
2019-05-25T07:16:53.971Z,1011.62
2019-05-25T07:17:53.976Z,1011.58
2019-05-25T07:18:53.988Z,1011.58
2019-05-25T07:19:53.992Z,1011.57
2019-05-25T07:20:53.998Z,1011.58
2019-05-25T07:21:54.008Z,1011.60
2019-05-25T07:22:54.015Z,1011.62
2019-05-25T07:23:54.022Z,1011.63
2019-05-25T07:24:54.026Z,1011.65
2019-05-25T07:25:54.032Z,1011.62
2019-05-25T07:26:54.036Z,1011.62
2019-05-25T07:27:59.769Z,1011.57
2019-05-25T07:28:54.059Z,1011.53
2019-05-25T07:29:54.059Z,1011.58
2019-05-25T07:30:54.062Z,1011.58
2019-05-25T07:31:54.078Z,1011.56
2019-05-25T07:32:54.087Z,1011.53
2019-05-25T07:33:54.097Z,1011.55
2019-05-25T07:34:54.094Z,1011.57
2019-05-25T07:35:54.100Z,1011.60
2019-05-25T07:36:54.113Z,1011.61
2019-05-25T07:37:54.116Z,1011.63
2019-05-25T07:38:54.119Z,1011.60
2019-05-25T07:39:54.126Z,1011.65
2019-05-25T07:40:54.133Z,1011.64
2019-05-25T07:41:54.139Z,1011.68
2019-05-25T07:42:54.148Z,1011.64
2019-05-25T07:43:54.144Z,1011.59
2019-05-25T07:44:54.165Z,1011.61
2019-05-25T07:45:54.176Z,1011.58
2019-05-25T07:46:54.171Z,1011.60
2019-05-25T07:47:54.179Z,1011.59
2019-05-25T07:48:54.186Z,1011.60
2019-05-25T07:49:54.190Z,1011.63
2019-05-25T07:50:54.203Z,1011.66
2019-05-25T07:51:54.206Z,1011.68
2019-05-25T07:52:54.210Z,1011.69
2019-05-25T07:53:54.215Z,1011.67
2019-05-25T07:54:54.225Z,1011.67
2019-05-25T07:55:54.232Z,1011.69
2019-05-25T07:56:54.236Z,1011.64
2019-05-25T07:57:54.243Z,1011.65
2019-05-25T07:58:54.245Z,1011.63
2019-05-25T07:59:54.254Z,1011.63
2019-05-25T08:00:54.264Z,1011.66
2019-05-25T08:01:54.271Z,1011.70
2019-05-25T08:02:54.281Z,1011.71
2019-05-25T08:03:54.281Z,1011.67
2019-05-25T08:04:54.283Z,1011.75
2019-05-25T08:05:54.290Z,1011.69
2019-05-25T08:06:54.381Z,1011.70
2019-05-25T08:07:54.293Z,1011.68
2019-05-25T08:08:54.304Z,1011.68
2019-05-25T08:09:54.310Z,1011.66
2019-05-25T08:10:54.320Z,1011.68
2019-05-25T08:11:54.314Z,1011.65
2019-05-25T08:12:54.323Z,1011.65
2019-05-25T08:13:54.325Z,1011.66
2019-05-25T08:14:54.325Z,1011.65
2019-05-25T08:15:54.348Z,1011.63
2019-05-25T08:16:54.389Z,1011.62
2019-05-25T08:17:54.357Z,1011.64
2019-05-25T08:18:54.350Z,1011.63
2019-05-25T08:19:54.358Z,1011.68
2019-05-25T08:20:54.374Z,1011.69
2019-05-25T08:21:54.357Z,1011.65
2019-05-25T08:22:54.370Z,1011.65
2019-05-25T08:23:54.368Z,1011.64
2019-05-25T08:24:54.380Z,1011.68
2019-05-25T08:25:54.379Z,1011.65
2019-05-25T08:26:54.390Z,1011.69
2019-05-25T08:27:54.393Z,1011.74
2019-05-25T08:28:54.398Z,1011.74
2019-05-25T08:29:54.398Z,1011.82
2019-05-25T08:30:54.394Z,1011.81
2019-05-25T08:31:54.410Z,1011.78
2019-05-25T08:32:54.402Z,1011.76
2019-05-25T08:33:54.410Z,1011.78
2019-05-25T08:34:54.417Z,1011.75
2019-05-25T08:35:54.419Z,1011.82
2019-05-25T08:36:54.431Z,1011.80
2019-05-25T08:37:54.426Z,1011.76
2019-05-25T08:38:55.031Z,1011.70
2019-05-25T08:39:54.434Z,1011.71
2019-05-25T08:40:54.445Z,1011.76
2019-05-25T08:41:54.444Z,1011.79
2019-05-25T08:42:54.447Z,1011.83
2019-05-25T08:43:54.468Z,1011.80
2019-05-25T08:44:54.452Z,1011.81
2019-05-25T08:45:54.455Z,1011.83
2019-05-25T08:46:55.564Z,1011.82
2019-05-25T08:47:57.106Z,1011.78
2019-05-25T08:48:54.471Z,1011.83
2019-05-25T08:49:54.473Z,1011.80
2019-05-25T08:50:54.473Z,1011.83
2019-05-25T08:51:55.135Z,1011.80
2019-05-25T08:52:54.489Z,1011.76
2019-05-25T08:53:54.485Z,1011.74
2019-05-25T08:54:56.708Z,1011.74
2019-05-25T08:55:54.497Z,1011.74
2019-05-25T08:56:54.496Z,1011.80
2019-05-25T08:57:54.498Z,1011.81
2019-05-25T08:58:55.651Z,1011.80
2019-05-25T08:59:54.511Z,1011.81
2019-05-25T09:00:54.513Z,1011.85
2019-05-25T09:01:54.520Z,1011.87
2019-05-25T09:02:54.517Z,1011.84
2019-05-25T09:03:54.528Z,1011.86
2019-05-25T09:04:54.526Z,1011.87
2019-05-25T09:05:54.545Z,1011.88
2019-05-25T09:06:54.542Z,1011.90
2019-05-25T09:07:54.538Z,1011.87
2019-05-25T09:08:54.540Z,1011.93
2019-05-25T09:09:54.545Z,1011.90
2019-05-25T09:10:54.546Z,1011.90
2019-05-25T09:11:54.547Z,1011.89
2019-05-25T09:12:54.554Z,1011.87
2019-05-25T09:13:54.555Z,1011.88
2019-05-25T09:14:54.555Z,1011.89
2019-05-25T09:15:54.560Z,1011.87
2019-05-25T09:16:54.563Z,1011.87
2019-05-25T09:17:54.571Z,1011.82
2019-05-25T09:18:54.571Z,1011.84
2019-05-25T09:19:54.572Z,1011.84
2019-05-25T09:20:54.576Z,1011.84
2019-05-25T09:22:02.426Z,1011.81
2019-05-25T09:22:54.577Z,1011.85
2019-05-25T09:23:54.578Z,1011.85
2019-05-25T09:24:54.582Z,1011.88
2019-05-25T09:25:54.599Z,1011.87
2019-05-25T09:26:54.587Z,1011.85
2019-05-25T09:27:54.595Z,1011.88
2019-05-25T09:29:04.007Z,1011.89
2019-05-25T09:29:54.597Z,1011.88
2019-05-25T09:30:54.607Z,1011.85
2019-05-25T09:31:54.606Z,1011.85
2019-05-25T09:32:54.608Z,1011.87
2019-05-25T09:33:54.618Z,1011.90
2019-05-25T09:34:54.610Z,1011.86
2019-05-25T09:35:54.611Z,1011.81
2019-05-25T09:36:54.616Z,1011.85
2019-05-25T09:37:54.619Z,1011.83
2019-05-25T09:38:54.640Z,1011.87
2019-05-25T09:39:54.626Z,1011.84
2019-05-25T09:40:54.629Z,1011.82
2019-05-25T09:41:54.631Z,1011.84
2019-05-25T09:42:54.665Z,1011.83
2019-05-25T09:43:54.631Z,1011.82
2019-05-25T09:44:54.631Z,1011.83
2019-05-25T09:45:54.639Z,1011.83
2019-05-25T09:46:54.638Z,1011.83
2019-05-25T09:47:54.637Z,1011.77
2019-05-25T09:48:54.642Z,1011.79
2019-05-25T09:49:54.651Z,1011.82
2019-05-25T09:50:54.659Z,1011.77
2019-05-25T09:51:54.653Z,1011.77
2019-05-25T09:52:54.656Z,1011.78
2019-05-25T09:53:54.657Z,1011.73
2019-05-25T09:54:55.694Z,1011.74
2019-05-25T09:55:54.661Z,1011.71
2019-05-25T09:56:54.663Z,1011.78
2019-05-25T09:57:54.661Z,1011.76
2019-05-25T09:58:54.668Z,1011.77
2019-05-25T09:59:54.671Z,1011.76
2019-05-25T10:00:54.667Z,1011.76
2019-05-25T10:01:54.673Z,1011.70
2019-05-25T10:02:54.689Z,1011.70
2019-05-25T10:03:56.642Z,1011.68
2019-05-25T10:04:54.678Z,1011.70
2019-05-25T10:05:54.691Z,1011.71
2019-05-25T10:06:54.719Z,1011.63
2019-05-25T10:07:54.682Z,1011.68
2019-05-25T10:08:54.680Z,1011.67
2019-05-25T10:09:54.685Z,1011.69
2019-05-25T10:10:54.693Z,1011.64
2019-05-25T10:11:54.690Z,1011.63
2019-05-25T10:12:54.692Z,1011.64
2019-05-25T10:13:54.700Z,1011.67
2019-05-25T10:14:54.698Z,1011.66
2019-05-25T10:15:54.698Z,1011.64
2019-05-25T10:16:54.697Z,1011.69
2019-05-25T10:17:54.700Z,1011.67
2019-05-25T10:18:54.697Z,1011.67
2019-05-25T10:19:54.697Z,1011.69
2019-05-25T10:20:54.701Z,1011.67
2019-05-25T10:21:54.708Z,1011.69
2019-05-25T10:22:54.706Z,1011.68
2019-05-25T10:23:54.706Z,1011.72
2019-05-25T10:24:54.711Z,1011.73
2019-05-25T10:25:54.706Z,1011.76
2019-05-25T10:26:54.706Z,1011.72
2019-05-25T10:27:54.706Z,1011.77
2019-05-25T10:28:54.711Z,1011.71
2019-05-25T10:29:54.712Z,1011.73
2019-05-25T10:30:54.719Z,1011.68
2019-05-25T10:31:54.720Z,1011.72
2019-05-25T10:32:54.716Z,1011.68
2019-05-25T10:33:54.720Z,1011.70
2019-05-25T10:34:54.722Z,1011.69
2019-05-25T10:35:54.724Z,1011.66
2019-05-25T10:36:54.727Z,1011.62
2019-05-25T10:37:54.731Z,1011.63
2019-05-25T10:38:54.725Z,1011.60
2019-05-25T10:39:54.739Z,1011.61
2019-05-25T10:40:58.265Z,1011.61
2019-05-25T10:41:54.742Z,1011.62
2019-05-25T10:42:54.739Z,1011.58
2019-05-25T10:43:54.730Z,1011.60
2019-05-25T10:44:54.740Z,1011.65
2019-05-25T10:45:54.741Z,1011.64
2019-05-25T10:46:54.747Z,1011.60
2019-05-25T10:47:54.751Z,1011.63
2019-05-25T10:48:54.744Z,1011.60
2019-05-25T10:49:54.784Z,1011.62
2019-05-25T10:50:54.753Z,1011.58
2019-05-25T10:51:54.745Z,1011.60
2019-05-25T10:52:54.745Z,1011.53
2019-05-25T10:53:54.752Z,1011.53
2019-05-25T10:54:54.757Z,1011.54
2019-05-25T10:55:54.767Z,1011.55
2019-05-25T10:56:54.923Z,1011.54
2019-05-25T10:57:54.791Z,1011.52
2019-05-25T10:58:54.769Z,1011.46
2019-05-25T10:59:54.780Z,1011.50
2019-05-25T11:00:54.768Z,1011.48
2019-05-25T11:01:54.776Z,1011.52
2019-05-25T11:02:54.773Z,1011.50
2019-05-25T11:03:54.783Z,1011.49
2019-05-25T11:04:56.091Z,1011.48
2019-05-25T11:05:54.768Z,1011.42
2019-05-25T11:06:54.774Z,1011.44
2019-05-25T11:07:54.799Z,1011.38
2019-05-25T11:08:54.781Z,1011.45
2019-05-25T11:09:54.782Z,1011.42
2019-05-25T11:10:54.822Z,1011.42
2019-05-25T11:11:54.792Z,1011.40
2019-05-25T11:12:54.773Z,1011.34
2019-05-25T11:13:54.790Z,1011.39
2019-05-25T11:14:54.786Z,1011.38
2019-05-25T11:15:54.778Z,1011.41
2019-05-25T11:16:54.800Z,1011.42
2019-05-25T11:17:54.784Z,1011.35
2019-05-25T11:18:54.799Z,1011.38
2019-05-25T11:19:54.793Z,1011.39
2019-05-25T11:20:54.787Z,1011.36
2019-05-25T11:21:54.788Z,1011.41
2019-05-25T11:22:54.796Z,1011.43
2019-05-25T11:23:54.780Z,1011.44
2019-05-25T11:24:54.793Z,1011.40
2019-05-25T11:25:54.784Z,1011.33
2019-05-25T11:26:54.819Z,1011.35
2019-05-25T11:27:54.801Z,1011.35
2019-05-25T11:28:54.800Z,1011.36
2019-05-25T11:30:07.949Z,1011.31
2019-05-25T11:30:54.798Z,1011.36
2019-05-25T11:31:58.987Z,1011.32
2019-05-25T11:32:54.786Z,1011.34
2019-05-25T11:33:54.799Z,1011.34
2019-05-25T11:34:54.800Z,1011.39
2019-05-25T11:35:54.795Z,1011.31
2019-05-25T11:36:54.803Z,1011.31
2019-05-25T11:37:54.804Z,1011.31
2019-05-25T11:38:54.802Z,1011.23
2019-05-25T11:39:54.802Z,1011.28
2019-05-25T11:40:54.802Z,1011.37
2019-05-25T11:41:54.802Z,1011.33
2019-05-25T11:42:54.800Z,1011.31
2019-05-25T11:43:54.807Z,1011.34
2019-05-25T11:44:55.621Z,1011.39
2019-05-25T11:45:54.810Z,1011.37
2019-05-25T11:46:54.818Z,1011.37
2019-05-25T11:47:54.811Z,1011.32
2019-05-25T11:48:54.810Z,1011.30
2019-05-25T11:49:54.811Z,1011.37
2019-05-25T11:50:54.815Z,1011.32
2019-05-25T11:51:54.812Z,1011.32
2019-05-25T11:52:54.818Z,1011.35
2019-05-25T11:53:54.815Z,1011.34
2019-05-25T11:54:54.818Z,1011.35
2019-05-25T11:55:54.819Z,1011.31
2019-05-25T11:56:55.633Z,1011.26
2019-05-25T11:57:54.830Z,1011.30
2019-05-25T11:58:54.821Z,1011.26
2019-05-25T11:59:54.814Z,1011.31
2019-05-25T12:00:54.813Z,1011.31
2019-05-25T12:01:54.830Z,1011.26
2019-05-25T12:02:54.828Z,1011.36
2019-05-25T12:03:54.817Z,1011.29
2019-05-25T12:04:54.818Z,1011.31
2019-05-25T12:05:54.823Z,1011.30